Time;durP1;ratioP1;P1;durP2;ratioP2;P2;SDS_P1;SDS_P2;PMS_P1;PMS_P2;Temp;Humidity;BMP_temperature;BMP_pressure;BME280_temperature;BME280_humidity;BME280_pressure;Samples;Min_cycle;Max_cycle;Signal;HPM_P1;HPM_P2
2023/06/29 00:00:15;;;;;;;3.50;1.92;;;;;;;;;;4948353;29;20087;-75
2023/06/29 00:02:41;;;;;;;5.13;2.55;;;;;;;;;;4920351;29;20031;-74
2023/06/29 00:05:08;;;;;;;5.85;2.97;;;;;;;;;;4920548;29;20469;-75
2023/06/29 00:07:34;;;;;;;4.80;1.95;;;;;;;;;;4938186;29;20032;-75
2023/06/29 00:10:00;;;;;;;8.10;2.63;;;;;;;;;;4937862;29;20496;-73
2023/06/29 00:12:27;;;;;;;5.70;2.60;;;;;;;;;;4938430;29;20028;-75
2023/06/29 00:14:53;;;;;;;2.17;1.98;;;;;;;;;;4942052;29;20019;-75
2023/06/29 00:17:20;;;;;;;2.88;2.30;;;;;;;;;;4957942;29;20053;-74
2023/06/29 00:19:48;;;;;;;3.88;2.45;;;;;;;;;;4940274;29;20035;-74
2023/06/29 00:22:14;;;;;;;2.28;2.08;;;;;;;;;;4957731;29;20107;-74
2023/06/29 00:24:44;;;;;;;3.55;1.90;;;;;;;;;;4939318;29;20067;-75
2023/06/29 00:27:15;;;;;;;3.13;2.05;;;;;;;;;;4938874;29;20035;-75
2023/06/29 00:29:42;;;;;;;2.95;2.20;;;;;;;;;;4954931;29;20135;-75
2023/06/29 00:32:10;;;;;;;2.35;1.90;;;;;;;;;;4920984;29;20032;-76
2023/06/29 00:34:38;;;;;;;3.88;2.30;;;;;;;;;;4921023;29;20034;-76
2023/06/29 00:37:04;;;;;;;5.53;2.17;;;;;;;;;;4921447;29;20036;-79
2023/06/29 00:39:31;;;;;;;3.97;2.17;;;;;;;;;;4939749;29;20110;-74
2023/06/29 00:41:56;;;;;;;3.65;2.20;;;;;;;;;;4921793;29;20104;-76
2023/06/29 00:44:22;;;;;;;5.60;2.42;;;;;;;;;;4938039;29;20130;-74
2023/06/29 00:46:50;;;;;;;3.95;1.88;;;;;;;;;;4938496;29;20169;-74
2023/06/29 00:49:18;;;;;;;2.85;1.92;;;;;;;;;;4940041;29;20027;-75
2023/06/29 00:51:49;;;;;;;3.80;2.28;;;;;;;;;;4956887;29;20043;-75
2023/06/29 00:54:18;;;;;;;4.43;2.20;;;;;;;;;;4938548;29;20030;-75
2023/06/29 00:56:45;;;;;;;4.00;2.60;;;;;;;;;;4938950;29;20067;-76
2023/06/29 00:59:11;;;;;;;4.90;2.38;;;;;;;;;;4956185;29;20443;-75
2023/06/29 01:01:43;;;;;;;2.90;2.33;;;;;;;;;;4939063;29;20134;-76
2023/06/29 01:04:09;;;;;;;3.70;2.45;;;;;;;;;;4956619;29;20031;-77
2023/06/29 01:06:58;;;;;;;4.40;2.22;;;;;;;;;;4954406;29;20031;-75
2023/06/29 01:09:24;;;;;;;4.43;2.40;;;;;;;;;;4955251;29;20038;-76
2023/06/29 01:11:52;;;;;;;3.63;2.08;;;;;;;;;;4937997;29;20035;-74
2023/06/29 01:14:23;;;;;;;5.82;2.40;;;;;;;;;;4955033;29;20039;-77
2023/06/29 01:16:50;;;;;;;4.80;2.20;;;;;;;;;;4941220;29;20055;-75
2023/06/29 01:19:21;;;;;;;2.58;2.17;;;;;;;;;;4935136;29;20032;-76
2023/06/29 01:21:57;;;;;;;6.68;2.38;;;;;;;;;;4936776;29;20070;-76
2023/06/29 01:24:26;;;;;;;3.28;1.95;;;;;;;;;;4935608;29;20027;-77
2023/06/29 01:26:52;;;;;;;5.03;2.30;;;;;;;;;;4935992;29;20043;-77
2023/06/29 01:29:24;;;;;;;3.10;2.70;;;;;;;;;;4936538;29;20461;-76
2023/06/29 01:31:59;;;;;;;9.13;2.58;;;;;;;;;;4937172;29;20043;-75
2023/06/29 01:34:27;;;;;;;6.00;2.50;;;;;;;;;;4936942;29;20043;-75
2023/06/29 01:36:55;;;;;;;2.80;2.10;;;;;;;;;;4934715;29;20035;-76
2023/06/29 01:39:26;;;;;;;2.35;2.15;;;;;;;;;;4936014;29;20028;-75
2023/06/29 01:41:54;;;;;;;2.83;2.35;;;;;;;;;;4935934;29;20090;-75
2023/06/29 01:44:20;;;;;;;2.60;2.03;;;;;;;;;;4936474;29;20023;-76
2023/06/29 01:46:47;;;;;;;3.92;2.22;;;;;;;;;;4935673;29;20114;-76
2023/06/29 01:49:13;;;;;;;6.32;3.08;;;;;;;;;;4934493;29;20044;-74
2023/06/29 01:51:39;;;;;;;5.00;2.20;;;;;;;;;;4918104;29;20488;-76
2023/06/29 01:54:05;;;;;;;2.92;2.05;;;;;;;;;;4935956;29;20103;-76
2023/06/29 01:56:32;;;;;;;5.43;2.70;;;;;;;;;;4918695;29;20082;-75
2023/06/29 01:59:01;;;;;;;4.22;2.50;;;;;;;;;;4934794;29;20059;-76
2023/06/29 02:01:27;;;;;;;3.15;2.30;;;;;;;;;;4933564;29;20050;-75
2023/06/29 02:03:52;;;;;;;2.58;2.33;;;;;;;;;;4918015;29;20024;-75
2023/06/29 02:06:18;;;;;;;3.20;2.40;;;;;;;;;;4920408;29;20038;-75
2023/06/29 02:08:44;;;;;;;3.80;2.47;;;;;;;;;;4921927;29;20582;-75
2023/06/29 02:11:10;;;;;;;4.20;2.17;;;;;;;;;;4937714;29;20039;-76
2023/06/29 02:13:36;;;;;;;3.78;2.50;;;;;;;;;;4935366;29;20034;-75
2023/06/29 02:16:01;;;;;;;4.55;2.45;;;;;;;;;;4919659;29;20023;-75
2023/06/29 02:18:30;;;;;;;4.50;2.58;;;;;;;;;;4936620;29;20491;-75
2023/06/29 02:20:55;;;;;;;2.33;2.13;;;;;;;;;;4937946;29;20120;-76
2023/06/29 02:23:21;;;;;;;3.45;2.70;;;;;;;;;;4956096;29;20454;-75
2023/06/29 02:25:46;;;;;;;3.72;2.40;;;;;;;;;;4955259;29;20126;-75
2023/06/29 02:28:12;;;;;;;8.25;4.05;;;;;;;;;;4937440;29;20067;-75
2023/06/29 02:30:37;;;;;;;4.10;2.83;;;;;;;;;;4954990;29;20484;-76
2023/06/29 02:33:03;;;;;;;3.90;2.35;;;;;;;;;;4937124;29;20039;-75
2023/06/29 02:35:28;;;;;;;4.47;3.03;;;;;;;;;;4919685;29;20082;-75
2023/06/29 02:37:54;;;;;;;3.80;2.58;;;;;;;;;;4920296;29;20520;-74
2023/06/29 02:40:20;;;;;;;6.38;2.65;;;;;;;;;;4922456;29;20099;-76
2023/06/29 02:42:45;;;;;;;8.57;2.70;;;;;;;;;;4940095;29;20719;-75
2023/06/29 02:45:12;;;;;;;4.60;2.60;;;;;;;;;;4939949;29;20031;-76
2023/06/29 02:47:37;;;;;;;2.78;2.53;;;;;;;;;;4952374;29;20388;-75
2023/06/29 02:50:03;;;;;;;5.90;2.92;;;;;;;;;;4941372;29;20031;-75
2023/06/29 02:52:29;;;;;;;3.75;2.60;;;;;;;;;;4941025;29;20554;-75
2023/06/29 02:54:54;;;;;;;4.50;2.45;;;;;;;;;;4956674;29;20027;-74
2023/06/29 02:57:20;;;;;;;4.00;2.85;;;;;;;;;;4956130;29;20027;-75
2023/06/29 02:59:45;;;;;;;3.75;2.38;;;;;;;;;;4956923;29;20050;-75
2023/06/29 03:02:11;;;;;;;3.58;2.20;;;;;;;;;;4956316;29;20027;-75
2023/06/29 03:04:36;;;;;;;7.53;2.65;;;;;;;;;;4958395;29;20051;-75
2023/06/29 03:07:02;;;;;;;4.38;2.80;;;;;;;;;;4941743;29;20050;-74
2023/06/29 03:09:27;;;;;;;4.32;2.97;;;;;;;;;;4942089;29;20024;-75
2023/06/29 03:11:54;;;;;;;6.85;2.88;;;;;;;;;;4943327;29;20058;-74
2023/06/29 03:14:21;;;;;;;4.70;2.50;;;;;;;;;;4961505;28;20035;-74
2023/06/29 03:16:48;;;;;;;6.22;2.92;;;;;;;;;;4972456;28;20035;-74
2023/06/29 03:19:15;;;;;;;2.88;2.58;;;;;;;;;;4946712;29;20078;-75
2023/06/29 03:21:40;;;;;;;2.88;2.60;;;;;;;;;;4969571;29;20035;-75
2023/06/29 03:24:06;;;;;;;7.32;3.65;;;;;;;;;;4973634;29;20023;-74
2023/06/29 03:26:33;;;;;;;5.05;2.70;;;;;;;;;;4952539;29;20063;-75
2023/06/29 03:28:58;;;;;;;2.80;2.60;;;;;;;;;;4959887;29;20043;-75
2023/06/29 03:31:24;;;;;;;3.47;2.97;;;;;;;;;;4960243;29;20035;-76
2023/06/29 03:33:49;;;;;;;4.90;2.80;;;;;;;;;;4957997;29;20094;-77
2023/06/29 03:36:18;;;;;;;5.43;3.30;;;;;;;;;;4957767;28;20527;-76
2023/06/29 03:38:44;;;;;;;3.88;2.78;;;;;;;;;;4959307;29;20031;-75
2023/06/29 03:41:10;;;;;;;4.97;3.00;;;;;;;;;;4956879;29;20110;-74
2023/06/29 03:43:35;;;;;;;3.75;2.55;;;;;;;;;;4959162;29;20086;-74
2023/06/29 03:46:02;;;;;;;6.50;3.42;;;;;;;;;;4958420;29;20117;-75
2023/06/29 03:48:27;;;;;;;4.30;2.63;;;;;;;;;;4942047;29;20039;-75
2023/06/29 03:50:56;;;;;;;3.33;2.85;;;;;;;;;;4938474;29;20067;-75
2023/06/29 03:53:22;;;;;;;6.03;2.92;;;;;;;;;;4922297;29;20055;-74
2023/06/29 03:55:48;;;;;;;3.67;2.97;;;;;;;;;;4939228;29;20095;-73
2023/06/29 03:58:16;;;;;;;5.20;2.58;;;;;;;;;;4938642;29;20031;-75
2023/06/29 04:00:42;;;;;;;5.93;2.78;;;;;;;;;;4922698;29;20531;-74
2023/06/29 04:03:09;;;;;;;3.63;3.10;;;;;;;;;;4931732;29;20038;-74
2023/06/29 04:05:34;;;;;;;3.70;2.80;;;;;;;;;;4958971;29;20031;-75
2023/06/29 04:08:05;;;;;;;4.45;3.33;;;;;;;;;;4941017;29;20046;-75
2023/06/29 04:10:33;;;;;;;4.35;3.03;;;;;;;;;;4958763;29;20062;-76
2023/06/29 04:12:58;;;;;;;5.55;3.38;;;;;;;;;;4959735;29;20373;-74
2023/06/29 04:15:24;;;;;;;9.30;2.97;;;;;;;;;;4959371;29;20106;-75
2023/06/29 04:17:52;;;;;;;6.35;3.08;;;;;;;;;;4951571;29;20024;-76
2023/06/29 04:20:18;;;;;;;5.30;3.25;;;;;;;;;;4920951;29;20388;-75
2023/06/29 04:22:44;;;;;;;5.03;2.70;;;;;;;;;;4937288;29;20066;-74
2023/06/29 04:25:10;;;;;;;7.57;2.97;;;;;;;;;;4937012;29;20461;-75
2023/06/29 04:27:35;;;;;;;6.32;2.85;;;;;;;;;;4905864;29;20090;-75
2023/06/29 04:30:03;;;;;;;6.15;3.40;;;;;;;;;;4921287;29;20035;-75
2023/06/29 04:32:29;;;;;;;4.43;3.15;;;;;;;;;;4940867;29;20741;-75
2023/06/29 04:34:54;;;;;;;7.03;2.63;;;;;;;;;;4940166;29;20089;-77
2023/06/29 04:37:20;;;;;;;6.45;2.78;;;;;;;;;;4939715;29;20058;-74
2023/06/29 04:39:46;;;;;;;8.18;3.13;;;;;;;;;;4957374;29;20070;-75
2023/06/29 04:42:13;;;;;;;3.97;2.70;;;;;;;;;;4958097;29;20034;-76
2023/06/29 04:44:43;;;;;;;3.13;2.85;;;;;;;;;;4940707;29;20023;-75
2023/06/29 04:47:09;;;;;;;4.45;3.03;;;;;;;;;;4929999;29;20031;-74
2023/06/29 04:49:40;;;;;;;4.70;2.70;;;;;;;;;;4950161;29;20039;-74
2023/06/29 04:52:10;;;;;;;4.88;2.83;;;;;;;;;;4955192;29;20034;-74
2023/06/29 04:54:36;;;;;;;8.52;4.60;;;;;;;;;;4955231;29;20030;-74
2023/06/29 04:57:02;;;;;;;8.07;3.65;;;;;;;;;;4933209;29;20028;-76
2023/06/29 04:59:30;;;;;;;6.30;3.20;;;;;;;;;;4938013;29;20015;-73
2023/06/29 05:01:58;;;;;;;6.47;2.40;;;;;;;;;;4936826;29;20023;-74
2023/06/29 05:04:24;;;;;;;7.32;2.95;;;;;;;;;;4950621;28;20106;-75
2023/06/29 05:06:50;;;;;;;6.55;4.90;;;;;;;;;;4952886;28;20114;-74
2023/06/29 05:09:19;;;;;;;8.48;3.17;;;;;;;;;;4933805;29;20114;-75
2023/06/29 05:11:45;;;;;;;4.20;2.53;;;;;;;;;;4937794;29;20035;-74
2023/06/29 05:14:11;;;;;;;5.78;2.42;;;;;;;;;;4937318;28;20155;-76
2023/06/29 05:16:36;;;;;;;4.70;2.38;;;;;;;;;;4929781;28;20035;-75
2023/06/29 05:19:04;;;;;;;2.75;2.53;;;;;;;;;;4940921;28;20098;-78
2023/06/29 05:21:30;;;;;;;8.00;3.08;;;;;;;;;;4920949;28;20047;-74
2023/06/29 05:24:23;;;;;;;7.32;2.90;;;;;;;;;;4934493;29;20491;-77
2023/06/29 05:26:52;;;;;;;6.80;3.00;;;;;;;;;;4925738;29;20807;-78
2023/06/29 05:29:18;;;;;;;6.40;2.95;;;;;;;;;;4935343;29;20031;-76
2023/06/29 05:31:43;;;;;;;4.25;2.50;;;;;;;;;;4929412;29;20031;-77
2023/06/29 05:34:09;;;;;;;4.60;2.83;;;;;;;;;;4934476;29;20067;-76
2023/06/29 05:36:37;;;;;;;5.78;3.28;;;;;;;;;;4951371;29;20465;-75
2023/06/29 05:39:04;;;;;;;7.88;3.00;;;;;;;;;;4927353;29;20043;-77
2023/06/29 05:41:31;;;;;;;6.43;3.13;;;;;;;;;;4939932;29;20037;-75
2023/06/29 05:43:57;;;;;;;5.50;3.00;;;;;;;;;;4954882;28;20082;-77
2023/06/29 05:46:22;;;;;;;7.03;2.10;;;;;;;;;;4940593;29;20508;-77
2023/06/29 05:48:51;;;;;;;3.72;2.63;;;;;;;;;;4937286;29;20369;-75
2023/06/29 05:51:19;;;;;;;4.72;2.17;;;;;;;;;;4931297;29;20430;-76
2023/06/29 05:53:49;;;;;;;5.97;2.58;;;;;;;;;;4933487;29;20691;-75
2023/06/29 05:56:18;;;;;;;8.73;2.70;;;;;;;;;;4936272;29;20028;-76
2023/06/29 05:58:44;;;;;;;7.43;2.33;;;;;;;;;;4924538;29;20027;-75
2023/06/29 06:01:10;;;;;;;5.82;2.42;;;;;;;;;;4934283;29;20380;-76
2023/06/29 06:03:36;;;;;;;3.72;2.28;;;;;;;;;;4923241;29;20485;-75
2023/06/29 06:06:02;;;;;;;6.28;3.22;;;;;;;;;;4921342;29;20083;-76
2023/06/29 06:08:46;;;;;;;7.07;3.42;;;;;;;;;;4927212;29;20031;-75
2023/06/29 06:11:13;;;;;;;5.03;3.50;;;;;;;;;;4930120;29;20543;-75
2023/06/29 06:13:38;;;;;;;5.72;2.83;;;;;;;;;;4918991;29;20859;-76
2023/06/29 06:16:04;;;;;;;6.85;2.83;;;;;;;;;;4927216;29;20333;-72
2023/06/29 06:18:30;;;;;;;6.82;2.60;;;;;;;;;;4929121;29;20074;-76
2023/06/29 06:20:56;;;;;;;6.60;2.65;;;;;;;;;;4927532;29;20035;-74
2023/06/29 06:23:23;;;;;;;4.25;2.47;;;;;;;;;;4925922;29;20118;-77
2023/06/29 06:25:50;;;;;;;3.90;2.50;;;;;;;;;;4932910;29;20046;-75
2023/06/29 06:28:21;;;;;;;5.18;2.30;;;;;;;;;;4926179;28;20038;-75
2023/06/29 06:30:47;;;;;;;7.27;2.90;;;;;;;;;;4941530;28;20429;-75
2023/06/29 06:33:14;;;;;;;7.80;3.40;;;;;;;;;;4921828;29;20305;-78
2023/06/29 06:35:41;;;;;;;4.72;2.38;;;;;;;;;;4943840;28;20039;-76
2023/06/29 06:38:06;;;;;;;7.25;2.80;;;;;;;;;;4942038;28;20027;-76
2023/06/29 06:40:32;;;;;;;8.65;2.25;;;;;;;;;;4927752;28;20040;-76
2023/06/29 06:42:59;;;;;;;2.90;2.13;;;;;;;;;;4941476;29;20305;-76
2023/06/29 06:45:26;;;;;;;6.57;2.83;;;;;;;;;;4928132;29;20161;-75
2023/06/29 06:47:53;;;;;;;7.40;2.80;;;;;;;;;;4944414;28;20244;-77
2023/06/29 06:50:18;;;;;;;5.25;2.40;;;;;;;;;;4921170;28;20038;-76
2023/06/29 06:52:44;;;;;;;6.82;2.25;;;;;;;;;;4943705;28;20027;-75
2023/06/29 06:55:13;;;;;;;7.60;2.75;;;;;;;;;;4927818;29;20039;-80
2023/06/29 06:57:39;;;;;;;6.93;1.92;;;;;;;;;;4942944;28;20046;-77
2023/06/29 07:00:05;;;;;;;3.17;1.98;;;;;;;;;;4943375;28;20050;-77
2023/06/29 07:02:31;;;;;;;5.00;2.00;;;;;;;;;;4946266;28;20035;-76
2023/06/29 07:04:56;;;;;;;5.60;2.10;;;;;;;;;;4940465;28;20031;-75
2023/06/29 07:07:23;;;;;;;5.35;1.70;;;;;;;;;;4933389;28;20042;-75
2023/06/29 07:09:49;;;;;;;3.03;1.58;;;;;;;;;;4944422;28;20068;-74
2023/06/29 07:12:14;;;;;;;6.38;1.83;;;;;;;;;;4940636;29;20493;-75
2023/06/29 07:14:41;;;;;;;2.88;1.42;;;;;;;;;;4937894;29;20015;-75
2023/06/29 07:17:06;;;;;;;4.05;1.60;;;;;;;;;;4943239;28;20035;-74
2023/06/29 07:19:32;;;;;;;3.05;1.88;;;;;;;;;;4944898;28;20035;-75
2023/06/29 07:21:58;;;;;;;4.13;1.30;;;;;;;;;;4940056;28;20039;-77
2023/06/29 07:24:24;;;;;;;4.03;1.58;;;;;;;;;;4931894;28;20036;-76
2023/06/29 07:26:50;;;;;;;1.83;1.45;;;;;;;;;;4946862;28;20050;-77
2023/06/29 07:29:15;;;;;;;4.18;1.48;;;;;;;;;;4953462;28;20027;-77
2023/06/29 07:31:41;;;;;;;3.65;1.30;;;;;;;;;;4918774;29;20374;-76
2023/06/29 07:34:08;;;;;;;5.05;1.85;;;;;;;;;;4934675;29;20035;-75
2023/06/29 07:36:34;;;;;;;5.97;1.35;;;;;;;;;;4953818;28;20062;-75
2023/06/29 07:39:01;;;;;;;5.43;1.83;;;;;;;;;;4951275;28;20055;-76
2023/06/29 07:41:27;;;;;;;6.47;1.40;;;;;;;;;;4949482;29;20052;-77
2023/06/29 07:43:56;;;;;;;4.13;1.50;;;;;;;;;;4946324;28;20031;-76
2023/06/29 07:46:25;;;;;;;4.22;2.05;;;;;;;;;;4943478;29;20408;-78
2023/06/29 07:48:53;;;;;;;5.22;2.08;;;;;;;;;;4948364;28;20034;-78
2023/06/29 07:51:20;;;;;;;7.28;1.40;;;;;;;;;;4930370;29;20076;-78
2023/06/29 07:53:45;;;;;;;2.90;1.90;;;;;;;;;;4942673;28;20036;-76
2023/06/29 07:56:12;;;;;;;4.72;1.90;;;;;;;;;;4944475;28;20031;-75
2023/06/29 07:58:37;;;;;;;5.45;1.52;;;;;;;;;;4931154;29;20105;-76
2023/06/29 08:01:03;;;;;;;6.50;2.42;;;;;;;;;;4942982;29;20028;-79
2023/06/29 08:03:29;;;;;;;2.97;1.70;;;;;;;;;;4931751;29;20034;-76
2023/06/29 08:05:56;;;;;;;3.95;1.60;;;;;;;;;;4942658;28;20073;-77
2023/06/29 08:08:21;;;;;;;5.80;1.90;;;;;;;;;;4942020;28;20046;-77
2023/06/29 08:10:48;;;;;;;5.50;1.83;;;;;;;;;;4941307;28;20027;-77
2023/06/29 08:13:15;;;;;;;2.72;1.42;;;;;;;;;;4924836;29;20036;-79
2023/06/29 08:15:40;;;;;;;6.15;1.25;;;;;;;;;;4920256;29;20039;-76
2023/06/29 08:18:09;;;;;;;3.15;1.30;;;;;;;;;;4950982;28;20460;-77
2023/06/29 08:20:34;;;;;;;3.47;1.40;;;;;;;;;;4945355;29;20033;-78
2023/06/29 08:23:00;;;;;;;4.38;1.80;;;;;;;;;;4944395;29;20117;-76
2023/06/29 08:25:25;;;;;;;4.55;1.77;;;;;;;;;;4924325;29;20082;-77
2023/06/29 08:27:51;;;;;;;4.60;1.65;;;;;;;;;;4947495;28;20035;-77
2023/06/29 08:30:16;;;;;;;6.35;1.80;;;;;;;;;;4924645;29;20736;-80
2023/06/29 08:32:43;;;;;;;6.68;2.40;;;;;;;;;;4947700;28;20035;-76
2023/06/29 08:35:09;;;;;;;2.30;1.20;;;;;;;;;;4913167;29;20551;-77
2023/06/29 08:37:35;;;;;;;4.35;1.65;;;;;;;;;;4948889;28;20027;-76
2023/06/29 08:40:01;;;;;;;2.33;1.50;;;;;;;;;;4922984;29;20036;-78
2023/06/29 08:42:27;;;;;;;10.15;2.72;;;;;;;;;;4943944;28;20057;-78
2023/06/29 08:44:53;;;;;;;6.53;1.60;;;;;;;;;;4944739;28;20055;-76
2023/06/29 08:47:19;;;;;;;9.55;2.97;;;;;;;;;;4936254;28;20740;-78
2023/06/29 08:49:45;;;;;;;10.80;2.20;;;;;;;;;;4937292;28;20089;-75
2023/06/29 08:52:22;;;;;;;3.92;1.60;;;;;;;;;;4926228;29;20053;-77
2023/06/29 08:54:48;;;;;;;9.45;1.88;;;;;;;;;;4943635;28;20027;-76
2023/06/29 08:57:17;;;;;;;8.13;2.30;;;;;;;;;;4921376;28;20031;-80
2023/06/29 08:59:48;;;;;;;5.75;1.65;;;;;;;;;;4935066;28;20035;-76
2023/06/29 09:02:15;;;;;;;6.93;1.80;;;;;;;;;;4925697;29;20035;-77
2023/06/29 09:04:41;;;;;;;3.72;2.15;;;;;;;;;;4941781;29;20046;-74
2023/06/29 09:07:06;;;;;;;5.03;1.95;;;;;;;;;;4934615;28;20558;-78
2023/06/29 09:09:32;;;;;;;7.65;1.63;;;;;;;;;;4944942;28;20038;-74
2023/06/29 09:12:00;;;;;;;3.55;1.77;;;;;;;;;;4942102;28;20181;-75
2023/06/29 09:14:32;;;;;;;3.88;1.60;;;;;;;;;;4923983;29;20044;-77
2023/06/29 09:16:58;;;;;;;2.45;1.88;;;;;;;;;;4933600;28;20041;-77
2023/06/29 09:19:25;;;;;;;4.72;2.20;;;;;;;;;;4947764;28;20106;-77
2023/06/29 09:21:52;;;;;;;4.88;1.55;;;;;;;;;;4927528;29;20035;-77
2023/06/29 09:24:27;;;;;;;4.28;1.80;;;;;;;;;;4933307;29;20272;-76
2023/06/29 09:26:56;;;;;;;3.90;1.45;;;;;;;;;;4935603;28;20162;-77
2023/06/29 09:29:22;;;;;;;3.17;1.67;;;;;;;;;;4941042;28;20130;-75
2023/06/29 09:31:56;;;;;;;4.68;1.30;;;;;;;;;;4938439;28;20110;-76
2023/06/29 09:34:25;;;;;;;6.10;1.73;;;;;;;;;;4942958;28;20081;-76
2023/06/29 09:36:53;;;;;;;4.72;1.85;;;;;;;;;;4945451;28;20081;-77
2023/06/29 09:39:19;;;;;;;5.97;1.75;;;;;;;;;;4948071;28;20058;-76
2023/06/29 09:41:50;;;;;;;6.75;2.08;;;;;;;;;;4921490;28;20039;-77
2023/06/29 09:44:19;;;;;;;2.65;1.63;;;;;;;;;;4932948;29;20523;-78
2023/06/29 09:46:49;;;;;;;3.75;1.50;;;;;;;;;;4924717;28;20046;-77
2023/06/29 09:49:15;;;;;;;4.43;1.60;;;;;;;;;;4939169;28;20070;-78
2023/06/29 09:51:41;;;;;;;8.98;1.80;;;;;;;;;;4924522;29;20162;-74
2023/06/29 09:54:14;;;;;;;3.15;1.42;;;;;;;;;;4921529;29;20161;-74
2023/06/29 09:56:41;;;;;;;6.60;1.77;;;;;;;;;;4939253;28;20075;-76
2023/06/29 09:59:11;;;;;;;4.43;1.77;;;;;;;;;;4926895;29;20059;-74
2023/06/29 10:01:43;;;;;;;2.97;1.17;;;;;;;;;;4939170;28;20046;-74
2023/06/29 10:04:09;;;;;;;3.42;1.33;;;;;;;;;;4940145;29;20027;-76
2023/06/29 10:06:48;;;;;;;4.35;1.30;;;;;;;;;;4940213;28;20074;-76
2023/06/29 10:09:20;;;;;;;3.50;1.48;;;;;;;;;;4924450;29;20484;-75
2023/06/29 10:11:51;;;;;;;3.45;1.77;;;;;;;;;;4940893;29;20036;-76
2023/06/29 10:14:18;;;;;;;5.40;1.45;;;;;;;;;;4917834;29;20059;-75
2023/06/29 10:16:54;;;;;;;5.43;1.30;;;;;;;;;;4933548;28;20126;-75
2023/06/29 10:19:22;;;;;;;3.88;1.60;;;;;;;;;;4931297;29;20040;-74
2023/06/29 10:21:53;;;;;;;3.25;1.25;;;;;;;;;;4941722;28;20028;-79
2023/06/29 10:24:24;;;;;;;3.92;1.45;;;;;;;;;;4920850;29;20051;-76
2023/06/29 10:26:50;;;;;;;3.60;1.33;;;;;;;;;;4940818;28;20057;-75
2023/06/29 10:29:16;;;;;;;3.58;1.65;;;;;;;;;;4937151;28;20275;-75
2023/06/29 10:31:48;;;;;;;2.70;1.42;;;;;;;;;;4940898;29;20492;-75
2023/06/29 10:34:19;;;;;;;2.80;1.30;;;;;;;;;;4938412;28;20090;-77
2023/06/29 10:36:51;;;;;;;6.15;1.65;;;;;;;;;;4922485;29;20027;-74
2023/06/29 10:39:39;;;;;;;2.85;1.30;;;;;;;;;;4927013;29;20496;-75
2023/06/29 10:42:36;;;;;;;4.75;1.58;;;;;;;;;;4940005;28;20023;-78
2023/06/29 10:45:23;;;;;;;1.60;1.17;;;;;;;;;;4919084;29;20036;-78
2023/06/29 10:47:57;;;;;;;2.35;1.40;;;;;;;;;;4947364;29;20060;-78
2023/06/29 10:50:43;;;;;;;2.05;1.50;;;;;;;;;;4948007;28;20055;-79
2023/06/29 10:53:17;;;;;;;2.58;1.35;;;;;;;;;;4941893;29;20031;-76
2023/06/29 10:55:57;;;;;;;8.45;2.10;;;;;;;;;;4930496;29;20035;-79
2023/06/29 10:58:26;;;;;;;10.13;1.95;;;;;;;;;;4944472;28;20039;-77
2023/06/29 11:00:53;;;;;;;1.85;1.40;;;;;;;;;;4958749;28;20050;-79
2023/06/29 11:03:22;;;;;;;2.88;1.65;;;;;;;;;;4954581;29;20046;-77
2023/06/29 11:05:52;;;;;;;4.15;1.60;;;;;;;;;;4925438;29;20047;-77
2023/06/29 11:08:30;;;;;;;3.65;1.35;;;;;;;;;;4916441;29;20206;-78
2023/06/29 11:11:13;;;;;;;7.32;1.75;;;;;;;;;;4948742;29;20063;-78
2023/06/29 11:13:39;;;;;;;2.60;1.30;;;;;;;;;;4917766;28;20033;-79
2023/06/29 11:16:05;;;;;;;6.32;1.73;;;;;;;;;;4945170;29;20889;-79
2023/06/29 11:18:31;;;;;;;3.38;1.33;;;;;;;;;;4944967;28;20122;-79
2023/06/29 11:21:01;;;;;;;3.10;1.75;;;;;;;;;;4944680;28;20034;-79
2023/06/29 11:23:30;;;;;;;4.55;1.52;;;;;;;;;;4937785;28;20354;-81
2023/06/29 11:26:00;;;;;;;2.63;1.38;;;;;;;;;;4941161;28;20139;-80
2023/06/29 11:28:25;;;;;;;4.72;1.42;;;;;;;;;;4937465;29;20063;-79
2023/06/29 11:30:52;;;;;;;7.00;2.00;;;;;;;;;;4944951;28;20169;-81
2023/06/29 11:33:20;;;;;;;2.28;1.30;;;;;;;;;;4949226;29;20039;-79
2023/06/29 11:35:45;;;;;;;4.63;1.63;;;;;;;;;;4945084;29;20030;-78
2023/06/29 11:38:12;;;;;;;2.10;1.42;;;;;;;;;;4940555;29;21466;-78
2023/06/29 11:40:38;;;;;;;4.47;1.67;;;;;;;;;;4935378;29;20520;-80
2023/06/29 11:43:05;;;;;;;4.82;1.30;;;;;;;;;;4951051;29;20030;-78
2023/06/29 11:45:31;;;;;;;3.88;1.88;;;;;;;;;;4955818;29;20028;-80
2023/06/29 11:47:58;;;;;;;2.08;1.40;;;;;;;;;;4951936;29;20031;-78
2023/06/29 11:50:23;;;;;;;6.18;1.60;;;;;;;;;;4970387;28;20082;-79
2023/06/29 11:52:49;;;;;;;2.05;1.45;;;;;;;;;;4952229;29;20030;-78
2023/06/29 11:55:15;;;;;;;3.10;1.65;;;;;;;;;;4950327;29;20395;-78
2023/06/29 11:57:43;;;;;;;2.22;1.70;;;;;;;;;;4927528;29;20028;-77
2023/06/29 12:00:15;;;;;;;6.25;1.88;;;;;;;;;;4930861;29;20046;-79
2023/06/29 12:02:41;;;;;;;3.63;1.20;;;;;;;;;;4921175;29;20035;-78
2023/06/29 12:05:08;;;;;;;3.63;1.40;;;;;;;;;;4926039;28;20038;-80
2023/06/29 12:07:37;;;;;;;3.05;1.40;;;;;;;;;;4947678;29;20035;-79
2023/06/29 12:10:23;;;;;;;2.10;1.38;;;;;;;;;;4943422;28;20114;-78
2023/06/29 12:12:56;;;;;;;3.83;1.42;;;;;;;;;;4941660;28;20030;-79
2023/06/29 12:15:27;;;;;;;4.75;1.70;;;;;;;;;;4933553;28;20042;-78
2023/06/29 12:18:06;;;;;;;4.88;1.67;;;;;;;;;;4925466;29;20039;-77
2023/06/29 12:20:40;;;;;;;5.00;1.60;;;;;;;;;;4931561;29;20532;-78
2023/06/29 12:23:06;;;;;;;9.13;1.70;;;;;;;;;;4924439;29;20034;-78
2023/06/29 12:25:42;;;;;;;2.55;1.33;;;;;;;;;;4916278;29;20047;-79
2023/06/29 12:28:11;;;;;;;4.40;1.30;;;;;;;;;;4947602;29;20031;-77
2023/06/29 12:30:36;;;;;;;6.72;1.30;;;;;;;;;;4932147;28;20035;-78
2023/06/29 12:33:03;;;;;;;3.50;1.60;;;;;;;;;;4940802;28;20089;-78
2023/06/29 12:35:29;;;;;;;1.55;1.27;;;;;;;;;;4943743;29;20035;-78
2023/06/29 12:37:55;;;;;;;3.38;1.17;;;;;;;;;;4930176;29;20078;-78
2023/06/29 12:40:20;;;;;;;2.88;1.25;;;;;;;;;;4924192;29;20043;-78
2023/06/29 12:42:46;;;;;;;4.28;1.30;;;;;;;;;;4944806;29;20656;-78
2023/06/29 12:45:12;;;;;;;2.03;1.25;;;;;;;;;;4944000;29;20437;-78
2023/06/29 12:47:39;;;;;;;5.15;1.85;;;;;;;;;;4939179;29;20087;-79
2023/06/29 12:50:06;;;;;;;2.60;1.20;;;;;;;;;;4929815;29;20038;-79
2023/06/29 12:52:31;;;;;;;4.10;1.30;;;;;;;;;;4942967;28;20061;-77
2023/06/29 12:54:57;;;;;;;5.70;1.70;;;;;;;;;;4936992;28;20028;-78
2023/06/29 12:57:25;;;;;;;2.30;1.08;;;;;;;;;;4924299;29;20490;-78
2023/06/29 12:59:52;;;;;;;3.70;1.67;;;;;;;;;;4929357;28;20116;-76
2023/06/29 13:02:18;;;;;;;3.65;1.40;;;;;;;;;;4939904;28;20031;-78
2023/06/29 13:04:43;;;;;;;5.45;1.45;;;;;;;;;;4942474;28;20163;-78
2023/06/29 13:07:09;;;;;;;2.13;1.17;;;;;;;;;;4943437;29;20384;-78
2023/06/29 13:09:37;;;;;;;1.40;1.15;;;;;;;;;;4947842;28;20173;-79
2023/06/29 13:12:03;;;;;;;3.40;1.42;;;;;;;;;;4940462;28;20035;-78
2023/06/29 13:14:37;;;;;;;2.63;1.25;;;;;;;;;;4941264;29;20047;-78
2023/06/29 13:17:03;;;;;;;4.18;1.63;;;;;;;;;;4944779;29;20105;-78
2023/06/29 13:19:32;;;;;;;3.42;1.45;;;;;;;;;;4939001;28;20150;-78
2023/06/29 13:21:57;;;;;;;2.33;1.20;;;;;;;;;;4935006;28;20024;-78
2023/06/29 13:24:23;;;;;;;1.85;1.10;;;;;;;;;;4939153;29;20027;-78
2023/06/29 13:26:52;;;;;;;3.78;1.13;;;;;;;;;;4940911;29;20096;-77
2023/06/29 13:29:21;;;;;;;6.00;1.70;;;;;;;;;;4944633;28;20113;-78
2023/06/29 13:31:52;;;;;;;5.80;1.90;;;;;;;;;;4947849;28;20035;-81
2023/06/29 13:34:18;;;;;;;3.70;1.25;;;;;;;;;;4944040;28;20023;-80
2023/06/29 13:36:45;;;;;;;2.83;1.10;;;;;;;;;;4948077;29;20115;-76
2023/06/29 13:39:11;;;;;;;2.00;1.23;;;;;;;;;;4932130;28;20035;-78
2023/06/29 13:41:41;;;;;;;5.10;2.22;;;;;;;;;;4938207;29;20093;-78
2023/06/29 13:44:08;;;;;;;2.45;1.33;;;;;;;;;;4939420;29;20023;-78
2023/06/29 13:46:41;;;;;;;6.88;1.20;;;;;;;;;;4940683;29;20590;-79
2023/06/29 13:49:07;;;;;;;3.65;1.40;;;;;;;;;;4938580;29;20043;-79
2023/06/29 13:51:34;;;;;;;1.88;1.25;;;;;;;;;;4946212;29;20031;-79
2023/06/29 13:54:02;;;;;;;2.10;1.13;;;;;;;;;;4943080;28;20031;-79
2023/06/29 13:56:34;;;;;;;10.18;1.52;;;;;;;;;;4943738;28;20376;-79
2023/06/29 13:59:06;;;;;;;4.93;1.65;;;;;;;;;;4911418;29;20607;-79
2023/06/29 14:01:35;;;;;;;4.97;1.33;;;;;;;;;;4938825;29;20039;-78
2023/06/29 14:04:02;;;;;;;1.88;1.25;;;;;;;;;;4936835;29;20417;-80
2023/06/29 14:06:27;;;;;;;7.00;2.20;;;;;;;;;;4935183;29;20473;-79
2023/06/29 14:08:53;;;;;;;2.85;1.40;;;;;;;;;;4940407;29;20082;-79
2023/06/29 14:11:18;;;;;;;2.42;1.30;;;;;;;;;;4947073;28;20038;-78
2023/06/29 14:13:44;;;;;;;1.33;1.17;;;;;;;;;;4945647;29;20752;-79
2023/06/29 14:16:09;;;;;;;1.92;1.00;;;;;;;;;;4946560;29;20083;-80
2023/06/29 14:18:35;;;;;;;3.58;1.13;;;;;;;;;;4945372;29;20031;-78
2023/06/29 14:21:00;;;;;;;1.88;0.95;;;;;;;;;;4928042;29;20033;-80
2023/06/29 14:23:27;;;;;;;9.27;2.00;;;;;;;;;;4927435;29;20035;-78
2023/06/29 14:25:54;;;;;;;3.75;1.30;;;;;;;;;;4941651;28;20110;-80
2023/06/29 14:28:20;;;;;;;3.55;1.55;;;;;;;;;;4929300;29;20119;-79
2023/06/29 14:30:46;;;;;;;4.32;1.17;;;;;;;;;;4949500;29;20078;-77
2023/06/29 14:33:12;;;;;;;4.63;1.58;;;;;;;;;;4946646;29;20468;-79
2023/06/29 14:35:39;;;;;;;2.88;1.25;;;;;;;;;;4929624;29;20101;-79
2023/06/29 14:38:05;;;;;;;2.88;1.00;;;;;;;;;;4940968;29;20751;-78
2023/06/29 14:40:31;;;;;;;3.15;1.40;;;;;;;;;;4933733;29;20042;-80
2023/06/29 14:42:56;;;;;;;2.10;1.08;;;;;;;;;;4942876;29;20047;-78
2023/06/29 14:45:22;;;;;;;2.17;1.15;;;;;;;;;;4950111;29;20501;-78